TimeCST,TemperatureF,Dew PointF,Humidity,Sea Level PressureIn,VisibilityMPH,Wind Direction,Wind SpeedMPH,Gust SpeedMPH,PrecipitationIn,Events,Conditions,WindDirDegrees,DateUTC
12:14 AM,28.4,19.4,69,30.10,10.0,SSE,8.1,-,N/A,,Mostly Cloudy,160,2013-11-30 06:14:00
12:34 AM,26.6,19.4,74,30.10,10.0,SSE,5.8,-,N/A,,Scattered Clouds,160,2013-11-30 06:34:00
12:54 AM,26.6,19.4,74,30.09,10.0,SSE,4.6,-,N/A,,Clear,160,2013-11-30 06:54:00
1:14 AM,26.6,19.4,74,30.08,10.0,South,4.6,-,N/A,,Clear,170,2013-11-30 07:14:00
1:34 AM,26.6,19.4,74,30.07,10.0,SSE,5.8,-,N/A,,Clear,160,2013-11-30 07:34:00
1:54 AM,26.6,19.4,74,30.05,10.0,SSE,4.6,-,N/A,,Clear,160,2013-11-30 07:54:00
2:14 AM,26.6,19.4,74,30.05,10.0,SSE,3.5,-,N/A,,Clear,150,2013-11-30 08:14:00
2:34 AM,26.6,19.4,74,30.06,10.0,Calm,Calm,-,N/A,,Clear,0,2013-11-30 08:34:00
2:54 AM,26.6,21.2,80,30.05,10.0,Calm,Calm,-,N/A,,Clear,0,2013-11-30 08:54:00
3:14 AM,24.8,19.4,80,30.05,10.0,Calm,Calm,-,N/A,,Clear,0,2013-11-30 09:14:00
3:34 AM,23.0,17.6,80,30.04,10.0,Calm,Calm,-,N/A,,Clear,0,2013-11-30 09:34:00
3:54 AM,19.4,15.8,86,30.04,10.0,Calm,Calm,-,N/A,,Clear,0,2013-11-30 09:54:00
4:14 AM,21.2,17.6,86,30.04,10.0,Calm,Calm,-,N/A,,Clear,0,2013-11-30 10:14:00
4:34 AM,19.4,15.8,86,30.04,10.0,Calm,Calm,-,N/A,,Clear,0,2013-11-30 10:34:00
4:54 AM,19.4,15.8,86,30.04,10.0,Calm,Calm,-,N/A,,Clear,0,2013-11-30 10:54:00
5:14 AM,19.4,17.6,93,30.03,10.0,Calm,Calm,-,N/A,,Clear,0,2013-11-30 11:14:00
5:34 AM,19.4,15.8,86,30.03,10.0,Calm,Calm,-,N/A,,Clear,0,2013-11-30 11:34:00
5:54 AM,19.4,15.8,86,30.02,10.0,Calm,Calm,-,N/A,,Clear,0,2013-11-30 11:54:00
6:14 AM,19.4,15.8,86,30.02,10.0,Calm,Calm,-,N/A,,Clear,0,2013-11-30 12:14:00
6:34 AM,19.4,17.6,93,30.02,10.0,Calm,Calm,-,N/A,,Mostly Cloudy,0,2013-11-30 12:34:00
6:54 AM,21.2,17.6,86,30.03,10.0,Calm,Calm,-,N/A,,Overcast,0,2013-11-30 12:54:00
7:14 AM,21.2,19.4,93,30.03,10.0,Calm,Calm,-,N/A,,Overcast,0,2013-11-30 13:14:00
7:34 AM,21.2,19.4,93,30.03,10.0,Calm,Calm,-,N/A,,Scattered Clouds,0,2013-11-30 13:34:00
7:54 AM,21.2,19.4,93,30.03,10.0,Calm,Calm,-,N/A,,Scattered Clouds,0,2013-11-30 13:54:00
8:14 AM,23.0,19.4,86,30.03,7.0,Calm,Calm,-,N/A,,Scattered Clouds,0,2013-11-30 14:14:00
8:34 AM,24.8,21.2,86,30.03,7.0,Calm,Calm,-,N/A,,Clear,0,2013-11-30 14:34:00
8:54 AM,24.8,21.2,86,30.04,7.0,Calm,Calm,-,N/A,,Clear,0,2013-11-30 14:54:00
9:14 AM,26.6,23.0,86,30.04,10.0,Calm,Calm,-,N/A,,Clear,0,2013-11-30 15:14:00
9:34 AM,26.6,23.0,86,30.05,10.0,WSW,3.5,-,N/A,,Clear,250,2013-11-30 15:34:00
9:54 AM,26.6,21.2,80,30.05,10.0,West,3.5,-,N/A,,Clear,270,2013-11-30 15:54:00
10:14 AM,30.2,23.0,75,30.05,10.0,WNW,4.6,-,N/A,,Clear,290,2013-11-30 16:14:00
10:34 AM,32.0,23.0,69,30.05,10.0,NW,5.8,-,N/A,,Clear,320,2013-11-30 16:34:00
10:54 AM,32.0,23.0,69,30.04,10.0,NW,4.6,-,N/A,,Clear,320,2013-11-30 16:54:00
11:14 AM,33.8,23.0,65,30.04,10.0,Calm,Calm,-,N/A,,Clear,0,2013-11-30 17:14:00
11:34 AM,35.6,23.0,60,30.04,10.0,Calm,Calm,-,N/A,,Clear,0,2013-11-30 17:34:00
11:54 AM,35.6,23.0,60,30.03,10.0,NW,3.5,-,N/A,,Clear,310,2013-11-30 17:54:00
12:14 PM,35.6,23.0,60,30.03,10.0,Calm,Calm,-,N/A,,Clear,0,2013-11-30 18:14:00
12:34 PM,35.6,23.0,60,30.04,10.0,NW,5.8,-,N/A,,Clear,310,2013-11-30 18:34:00
12:54 PM,35.6,23.0,60,30.04,10.0,NNW,9.2,-,N/A,,Clear,330,2013-11-30 18:54:00
1:14 PM,33.8,23.0,65,30.04,10.0,NNW,9.2,-,N/A,,Scattered Clouds,330,2013-11-30 19:14:00
1:34 PM,33.8,23.0,65,30.04,10.0,NNW,5.8,-,N/A,,Mostly Cloudy,340,2013-11-30 19:34:00
1:54 PM,33.8,23.0,65,30.03,10.0,NW,4.6,-,N/A,,Scattered Clouds,310,2013-11-30 19:54:00
2:14 PM,33.8,23.0,65,30.03,10.0,WNW,4.6,-,N/A,,Clear,290,2013-11-30 20:14:00
2:34 PM,35.6,23.0,60,30.03,10.0,NW,6.9,-,N/A,,Clear,310,2013-11-30 20:34:00
2:54 PM,33.8,23.0,65,30.04,10.0,NW,6.9,-,N/A,,Clear,320,2013-11-30 20:54:00
3:14 PM,33.8,23.0,65,30.05,10.0,NW,9.2,-,N/A,,Clear,320,2013-11-30 21:14:00
3:34 PM,33.8,23.0,65,30.05,10.0,NW,6.9,-,N/A,,Clear,310,2013-11-30 21:34:00
3:54 PM,32.0,23.0,69,30.06,10.0,NW,8.1,-,N/A,,Clear,320,2013-11-30 21:54:00
4:14 PM,32.0,21.2,64,30.07,10.0,WNW,8.1,-,N/A,,Clear,300,2013-11-30 22:14:00
4:34 PM,32.0,21.2,64,30.07,10.0,NW,5.8,-,N/A,,Clear,320,2013-11-30 22:34:00
4:54 PM,32.0,23.0,69,30.08,10.0,NW,3.5,-,N/A,,Clear,320,2013-11-30 22:54:00
5:14 PM,32.0,23.0,69,30.08,10.0,North,3.5,-,N/A,,Clear,350,2013-11-30 23:14:00
5:34 PM,32.0,23.0,69,30.09,10.0,North,3.5,-,N/A,,Clear,350,2013-11-30 23:34:00
5:54 PM,30.2,21.2,69,30.10,10.0,NW,4.6,-,N/A,,Clear,320,2013-11-30 23:54:00
6:14 PM,30.2,21.2,69,30.11,10.0,NNW,3.5,-,N/A,,Clear,340,2013-12-01 00:14:00
6:34 PM,30.2,21.2,69,30.12,10.0,NNW,3.5,-,N/A,,Clear,340,2013-12-01 00:34:00
6:54 PM,30.2,23.0,75,30.12,10.0,NNW,4.6,-,N/A,,Clear,340,2013-12-01 00:54:00
7:14 PM,28.4,21.2,74,30.12,10.0,North,3.5,-,N/A,,Clear,350,2013-12-01 01:14:00
7:34 PM,28.4,21.2,74,30.13,10.0,NNW,3.5,-,N/A,,Clear,330,2013-12-01 01:34:00
7:54 PM,26.6,21.2,80,30.14,10.0,NNW,3.5,-,N/A,,Clear,330,2013-12-01 01:54:00
8:14 PM,26.6,21.2,80,30.14,10.0,NNW,4.6,-,N/A,,Clear,330,2013-12-01 02:14:00
8:34 PM,26.6,21.2,80,30.14,10.0,NNW,3.5,-,N/A,,Clear,340,2013-12-01 02:34:00
8:54 PM,26.6,21.2,80,30.14,10.0,NNW,4.6,-,N/A,,Clear,330,2013-12-01 02:54:00
9:14 PM,26.6,21.2,80,30.14,10.0,NNW,3.5,-,N/A,,Clear,340,2013-12-01 03:14:00
9:34 PM,26.6,21.2,80,30.15,10.0,NNW,4.6,-,N/A,,Clear,340,2013-12-01 03:34:00
9:54 PM,24.8,19.4,80,30.16,10.0,NNW,3.5,-,N/A,,Clear,330,2013-12-01 03:54:00
10:14 PM,21.2,17.6,86,30.16,10.0,NNW,3.5,-,N/A,,Clear,340,2013-12-01 04:14:00
10:34 PM,21.2,17.6,86,30.16,10.0,Calm,Calm,-,N/A,,Clear,0,2013-12-01 04:34:00
10:54 PM,19.4,15.8,86,30.17,7.0,North,3.5,-,N/A,,Clear,350,2013-12-01 04:54:00
11:14 PM,21.2,17.6,86,30.17,10.0,North,3.5,-,N/A,,Clear,350,2013-12-01 05:14:00
11:34 PM,19.4,17.6,93,30.18,10.0,Calm,Calm,-,N/A,,Clear,0,2013-12-01 05:34:00
11:54 PM,19.4,17.6,93,30.18,10.0,Calm,Calm,-,N/A,,Clear,0,2013-12-01 05:54:00